Latest Weather Observations for Cape Moreton

IDQ60901

Issued at 9:51 am EST Wednesday 1 June 2016 (issued every 10 minutes, with the page automatically refreshed every 10 minutes)

About weather observations | Map of Brisbane area stations | Latest observations for Brisbane area | Other Formats
Station Details ID: 040043 Name: CAPE MORETON LIGHTHOUSE Lat: -27.03 Lon: 153.47 Height: 99.9 m
Data from the previous 72 hours. | See also: Recent months at Cape Moreton
Date/Time
EST
Tmp

°C
App
Tmp
°C
Dew
Point
°C
Rel
Hum
%
Delta-T

°C
Wind Press
QNH
hPa
Press
MSL
hPa
Rain
since
9 am
mm
Dir
 
Spd
km/h
Gust
km/h
Spd
kts
Gust
kts
01/09:34am 16.4 12.3 15.9 97 0.3 ESE 32 50 17 27 1025.0 1024.7 7.4
01/09:30am 16.9 13.7 16.4 97 0.3 ESE 28 37 15 20 1025.3 1025.0 7.4
01/09:10am 16.4 14.5 15.3 93 0.6 SW 19 43 10 23 1025.3 1025.0 4.2
01/09:00am 16.3 15.0 14.8 91 0.9 SW 15 20 8 11 1025.4 1025.1 18.6
01/08:30am 17.7 16.0 14.8 83 1.7 SSE 17 28 9 15 1024.9 1024.6 0.8
01/08:00am 17.6 11.9 14.3 81 1.9 SE 37 50 20 27 1024.7 1024.4 0.0
01/07:51am 18.1 14.0 15.0 82 1.8 SE 30 50 16 27 1024.5 1024.2 0.0
01/07:47am 17.7 13.9 14.8 83 1.7 SSE 28 39 15 21 1024.7 1024.4 0.0
01/07:30am 17.8 16.7 15.2 85 1.5 SSW 15 20 8 11 1025.1 1024.8 0.0
01/07:00am 18.8 16.7 15.3 80 2.1 ESE 20 26 11 14 1024.4 1024.1 0.0
01/06:30am 18.8 14.6 14.7 77 2.4 E 30 33 16 18 1024.0 1023.7 0.0
01/06:00am 17.9 13.3 13.4 75 2.5 ESE 30 37 16 20 1023.8 1023.5 0.0
01/05:30am 18.0 13.0 14.1 78 2.2 ESE 33 37 18 20 1023.4 1023.1 0.0
01/05:00am 18.1 11.9 15.0 82 1.8 ESE 41 50 22 27 1023.2 1022.9 0.0
01/04:43am 18.9 15.1 14.8 77 2.4 ESE 28 46 15 25 1023.1 1022.8 0.0
01/04:30am 18.7 15.9 14.2 75 2.6 ESE 22 30 12 16 1023.1 1022.8 0.0
01/04:00am 18.0 14.4 13.1 73 2.8 ESE 24 30 13 16 1023.2 1022.9 0.0
01/03:30am 20.0 16.0 14.1 69 3.4 ESE 28 43 15 23 1022.9 1022.7 0.0
01/03:00am 20.1 16.0 12.8 63 4.1 ESE 26 32 14 17 1023.1 1022.8 0.0
01/02:30am 19.9 16.0 12.2 61 4.3 ESE 24 28 13 15 1023.4 1023.1 0.0
01/02:00am 19.8 16.0 12.3 62 4.2 ESE 24 30 13 16 1023.7 1023.4 0.0
01/01:30am 19.7 15.5 12.5 63 4.1 ESE 26 30 14 16 1023.7 1023.4 0.0
01/01:00am 19.7 15.6 12.7 64 3.9 ESE 26 32 14 17 1024.3 1024.0 0.0
01/12:30am 19.8 15.2 13.5 67 3.6 ESE 30 35 16 19 1024.3 1024.0 0.0
01/12:00am 19.9 15.3 12.4 62 4.2 ESE 28 32 15 17 1024.6 1024.3 0.0
 
Date/Time
EST
Tmp

°C
App
Tmp
°C
Dew
Point
°C
Rel
Hum
%
Delta-T

°C
Wind Press
QNH
hPa
Press
MSL
hPa
Rain
since
9 am
mm
Dir
 
Spd
km/h
Gust
km/h
Spd
kts
Gust
kts
31/11:30pm 20.0 16.1 12.0 60 4.5 ESE 24 30 13 16 1025.0 1024.7 0.0
31/11:00pm 19.7 15.1 12.2 62 4.2 SE 28 35 15 19 1024.6 1024.3 0.0
31/10:30pm 19.5 14.3 12.8 65 3.8 ESE 32 39 17 21 1024.5 1024.2 0.0
31/10:00pm 19.7 14.4 14.3 71 3.1 ESE 35 43 19 23 1024.7 1024.4 0.0
31/09:30pm 19.9 15.3 14.5 71 3.2 ESE 32 39 17 21 1025.3 1025.0 0.0
31/09:00pm 20.0 14.7 13.2 65 3.9 ESE 33 39 18 21 1024.8 1024.5 0.0
31/08:30pm 20.0 15.1 12.7 63 4.1 ESE 30 35 16 19 1025.2 1024.9 0.0
31/08:00pm 19.9 15.3 13.6 67 3.6 ESE 30 35 16 19 1025.2 1024.9 0.0
31/07:30pm 19.8 15.3 13.7 68 3.5 ESE 30 35 16 19 1024.9 1024.6 0.0
31/07:00pm 19.9 15.9 14.0 69 3.4 ESE 28 35 15 19 1024.9 1024.6 0.0
31/06:30pm 19.7 15.3 14.1 70 3.2 ESE 30 37 16 20 1024.8 1024.5 0.0
31/06:00pm 19.7 14.6 13.6 68 3.5 SE 33 41 18 22 1024.6 1024.3 0.0
31/05:30pm 20.0 15.9 13.7 67 3.6 SE 28 35 15 19 1024.2 1023.9 0.0
31/05:00pm 19.9 16.1 13.6 67 3.6 SE 26 32 14 17 1024.2 1023.9 0.0
31/04:30pm 21.0 18.5 12.4 58 4.9 SE 17 19 9 10 1024.0 1023.7 0.0
31/04:00pm 20.7 18.3 12.7 60 4.5 SE 17 20 9 11 1023.9 1023.6 0.0
31/03:30pm 21.1 18.0 13.3 61 4.5 SE 22 26 12 14 1023.6 1023.3 0.0
31/03:00pm 21.6 18.2 13.8 61 4.5 SE 24 30 13 16 1023.6 1023.3 0.0
31/02:30pm 20.9 17.9 13.8 64 4.1 SE 22 28 12 15 1023.5 1023.2 0.0
31/02:00pm 22.8 21.7 11.8 50 6.2 ESE 9 11 5 6 1023.7 1023.4 0.0
31/01:30pm 23.9 22.0 11.9 47 6.8 E 13 17 7 9 1023.9 1023.6 0.0
31/01:00pm 22.5 20.7 10.9 48 6.4 E 11 15 6 8 1024.1 1023.8 0.0
31/12:30pm 24.3 22.6 12.3 47 6.9 ENE 13 19 7 10 1024.4 1024.1 0.0
31/12:00pm 22.9 20.5 11.3 48 6.5 E 15 17 8 9 1024.9 1024.6 0.0
31/11:30am 23.1 20.2 10.9 46 6.8 E 17 22 9 12 1025.0 1024.7 0.0
31/11:00am 25.8 23.4 12.6 44 7.6 E 17 20 9 11 1025.4 1025.1 0.0
31/10:30am 25.1 22.9 12.0 44 7.5 E 15 19 8 10 1025.9 1025.6 0.0
31/10:00am 24.8 22.2 12.1 45 7.2 ESE 17 24 9 13 1026.2 1025.9 0.0
31/09:30am 24.7 21.8 12.3 46 7.1 ESE 19 22 10 12 1026.3 1026.0 0.0
31/09:00am 23.4 19.7 11.5 47 6.7 ESE 22 26 12 14 1026.0 1025.7 0.0
31/08:30am 20.6 19.0 13.8 65 3.9 SE 15 22 8 12 1025.5 1025.2 0.0
31/08:00am 18.6 16.5 13.5 72 2.9 S 17 20 9 11 1025.7 1025.4 0.0
31/07:30am 18.3 15.2 13.4 73 2.8 SSE 22 26 12 14 1025.4 1025.1 0.0
31/07:00am 17.8 15.1 12.9 73 2.7 S 19 24 10 13 1025.2 1024.9 0.0
31/06:30am 17.6 14.6 12.5 72 2.8 S 20 24 11 13 1025.0 1024.7 0.0
31/06:00am 17.9 14.6 11.7 67 3.4 S 20 24 11 13 1024.5 1024.2 0.0
31/05:30am 18.5 16.0 11.1 62 4.0 S 15 22 8 12 1024.4 1024.1 0.0
31/05:00am 19.6 15.8 9.2 51 5.5 ESE 19 26 10 14 1023.9 1023.6 0.0
31/04:30am 19.6 15.8 9.8 53 5.3 ESE 20 26 11 14 1023.8 1023.5 0.0
31/04:00am 19.4 15.8 9.9 54 5.1 ESE 19 24 10 13 1023.9 1023.6 0.0
31/03:30am 19.1 15.8 9.6 54 5.1 E 17 24 9 13 1023.8 1023.5 0.0
31/03:00am 19.1 15.7 9.3 53 5.2 ESE 17 24 9 13 1023.6 1023.3 0.0
31/02:30am 19.1 15.7 9.0 52 5.3 ESE 17 24 9 13 1023.8 1023.5 0.0
31/02:00am 18.8 15.2 8.5 51 5.3 E 17 24 9 13 1024.1 1023.8 0.0
31/01:30am 19.0 15.1 8.6 51 5.4 ESE 19 24 10 13 1024.0 1023.7 0.0
31/01:00am 18.9 15.0 8.8 52 5.3 E 19 24 10 13 1024.2 1023.9 0.0
31/12:30am 19.1 15.2 8.7 51 5.4 E 19 24 10 13 1024.3 1024.0 0.0
31/12:00am 18.9 15.2 9.4 54 5.0 E 19 26 10 14 1024.3 1024.0 0.0
 
Date/Time
EST
Tmp

°C
App
Tmp
°C
Dew
Point
°C
Rel
Hum
%
Delta-T

°C
Wind Press
QNH
hPa
Press
MSL
hPa
Rain
since
9 am
mm
Dir
 
Spd
km/h
Gust
km/h
Spd
kts
Gust
kts
30/11:30pm 19.0 14.8 8.1 49 5.6 E 20 24 11 13 1024.5 1024.2 0.0
30/11:00pm 19.1 15.1 9.0 52 5.3 ESE 20 28 11 15 1024.7 1024.4 0.0
30/10:30pm 18.8 14.9 9.3 54 5.0 ESE 20 22 11 12 1024.6 1024.3 0.0
30/10:00pm 19.1 15.4 9.3 53 5.2 E 19 24 10 13 1024.5 1024.2 0.0
30/09:30pm 18.7 15.3 9.2 54 5.0 E 17 24 9 13 1024.4 1024.1 0.0
30/09:00pm 18.8 15.0 9.0 53 5.1 E 19 24 10 13 1024.4 1024.1 0.0
30/08:30pm 18.8 15.9 9.8 56 4.8 E 15 22 8 12 1024.4 1024.1 0.0
30/08:00pm 18.9 14.9 9.1 53 5.1 E 20 28 11 15 1023.9 1023.6 0.0
30/07:30pm 18.9 14.6 8.0 49 5.6 E 20 26 11 14 1023.7 1023.4 0.0
30/07:00pm 18.8 14.8 8.2 50 5.5 E 19 22 10 12 1023.6 1023.3 0.0
30/06:30pm 18.6 15.6 9.1 54 5.0 E 15 19 8 10 1023.5 1023.2 0.0
30/06:00pm 18.7 15.6 8.9 53 5.1 ENE 15 20 8 11 1023.2 1022.9 0.0
30/05:30pm 18.6 15.6 9.4 55 4.9 E 15 22 8 12 1023.1 1022.8 0.0
30/05:00pm 18.9 16.4 9.7 55 4.9 ENE 13 19 7 10 1022.7 1022.5 0.0
30/04:30pm 19.5 17.6 9.1 51 5.5 ENE 9 11 5 6 1022.5 1022.3 0.0
30/04:00pm 19.8 16.8 9.1 50 5.6 ENE 15 19 8 10 1022.1 1021.9 0.0
30/03:30pm 20.2 18.1 9.7 51 5.6 E 11 17 6 9 1022.0 1021.8 0.0
30/03:00pm 20.5 18.2 11.7 57 4.9 ESE 15 20 8 11 1021.8 1021.6 0.0
30/02:30pm 20.8 18.3 12.2 58 4.8 ESE 17 22 9 12 1021.8 1021.6 0.0
30/02:00pm 20.6 17.6 11.8 57 4.9 ESE 19 24 10 13 1021.7 1021.5 0.0
30/01:30pm 21.1 18.6 12.3 57 5.0 ESE 17 20 9 11 1021.8 1021.6 0.0
30/01:00pm 20.9 18.3 12.1 57 4.9 ESE 17 22 9 12 1021.7 1021.5 0.0
30/12:30pm 21.3 18.8 12.4 57 5.0 ESE 17 20 9 11 1022.0 1021.8 0.0
30/12:00pm 21.6 19.6 12.7 57 5.1 SE 15 17 8 9 1022.5 1022.3 0.0
30/11:30am 21.6 20.1 13.0 58 4.9 SE 13 17 7 9 1023.2 1022.9 0.0
30/11:00am 21.1 18.7 12.8 59 4.7 SE 17 20 9 11 1023.4 1023.1 0.0
30/10:30am 20.6 18.2 11.5 56 5.1 SE 15 20 8 11 1023.5 1023.2 0.0
30/10:00am 20.9 19.0 11.8 56 5.1 SSE 13 19 7 10 1023.6 1023.3 0.0
30/09:30am 20.2 18.8 10.9 55 5.1 S 9 15 5 8 1023.7 1023.4 0.0
30/09:00am 18.7 16.6 9.8 56 4.7 SSW 11 15 6 8 1023.5 1023.2 -
30/08:30am - - - - - - - - - - 1023.2 1022.9 -
30/08:00am - - - - - - - - - - 1022.8 1022.6 -
30/07:30am - - - - - - - - - - 1022.5 1022.3 -
30/07:00am - - - - - - - - - - 1022.1 1021.9 -
30/06:30am - - - - - - - - - - 1021.7 1021.5 -
30/06:00am - - - - - - - - - - 1021.4 1021.2 -
30/05:30am - - - - - - - - - - 1021.2 1021.0 -
30/05:00am - - - - - - - - - - 1020.8 1020.6 -
30/04:30am 13.8 9.7 7.8 67 3.0 SSW 19 20 10 11 1020.4 1020.2 0.0
30/04:00am 14.2 10.1 7.9 66 3.1 SSW 19 20 10 11 1020.2 1020.0 0.0
30/03:30am 14.5 10.5 8.2 66 3.2 SSW 19 20 10 11 1020.3 1020.1 0.0
30/03:00am 14.2 10.2 8.2 67 3.0 SSW 19 22 10 12 1020.1 1019.9 0.0
30/02:30am 14.5 10.0 8.5 67 3.0 SW 22 28 12 15 1020.0 1019.7 0.0
30/02:00am 14.9 10.4 8.4 65 3.3 SW 22 26 12 14 1020.0 1019.7 0.0
30/01:30am 15.5 11.0 8.5 63 3.6 SW 22 26 12 14 1019.9 1019.6 0.0
30/01:00am 15.5 11.0 8.7 64 3.5 SW 22 26 12 14 1019.8 1019.5 0.0
30/12:30am 15.4 11.6 9.7 69 3.0 SW 20 24 11 13 1019.9 1019.6 0.0
30/12:00am 15.1 12.7 11.3 78 2.0 WSW 15 17 8 9 1019.9 1019.6 0.0
 
Date/Time
EST
Tmp

°C
App
Tmp
°C
Dew
Point
°C
Rel
Hum
%
Delta-T

°C
Wind Press
QNH
hPa
Press
MSL
hPa
Rain
since
9 am
mm
Dir
 
Spd
km/h
Gust
km/h
Spd
kts
Gust
kts
29/11:30pm 15.5 12.1 11.3 76 2.3 W 20 22 11 12 1020.0 1019.7 0.0
29/11:00pm 15.8 12.0 9.9 68 3.1 W 20 24 11 13 1020.1 1019.9 0.0
29/10:30pm 16.9 13.2 8.1 56 4.5 W 17 19 9 10 1020.3 1020.1 0.0
29/10:00pm 18.2 16.7 9.3 56 4.7 N 7 11 4 6 1020.3 1020.1 0.0
29/09:30pm 18.1 16.6 8.4 53 5.0 NNE 6 9 3 5 1020.2 1020.0 0.0
29/09:00pm 18.1 16.6 8.4 53 5.0 N 6 7 3 4 1020.2 1020.0 0.0
29/08:30pm 18.0 15.8 8.0 52 5.1 NE 9 11 5 6 1020.1 1019.9 0.0
29/08:00pm 17.6 15.6 8.7 56 4.6 ENE 9 13 5 7 1019.8 1019.5 0.0
29/07:30pm 17.2 14.9 8.9 58 4.3 E 11 13 6 7 1019.5 1019.2 0.0
29/07:00pm 16.6 13.7 8.3 58 4.2 ESE 13 15 7 8 1019.2 1018.9 0.0
29/06:30pm 16.6 14.1 8.3 58 4.2 E 11 13 6 7 1018.9 1018.6 0.0
29/06:00pm 17.1 14.8 9.0 59 4.2 ENE 11 15 6 8 1018.6 1018.3 0.0
29/05:30pm 17.0 14.5 8.2 56 4.5 ENE 11 13 6 7 1018.2 1017.9 0.0
29/05:00pm 17.2 14.7 8.1 55 4.6 ENE 11 13 6 7 1017.9 1017.6 0.0
29/04:30pm 17.7 15.5 7.7 52 5.1 E 9 15 5 8 1017.6 1017.3 0.0
29/04:00pm 19.1 17.3 7.8 48 5.8 NE 7 11 4 6 1017.4 1017.1 0.0
29/03:30pm 18.9 16.7 8.0 49 5.6 N 9 13 5 7 1017.2 1016.9 0.0
29/03:00pm 19.7 16.7 7.8 46 6.1 NNW 13 20 7 11 1016.9 1016.6 0.0
29/02:30pm 22.1 20.0 6.7 37 7.9 ESE 7 15 4 8 1016.8 1016.5 0.0
29/02:00pm 22.4 18.8 4.9 32 8.7 SSW 13 20 7 11 1016.3 1016.0 0.0
29/01:30pm 20.5 16.3 5.7 38 7.4 WSW 17 24 9 13 1016.6 1016.3 0.0
29/01:00pm 19.7 15.8 5.4 39 7.0 W 15 20 8 11 1016.7 1016.4 0.0
29/12:30pm 19.5 15.0 4.0 36 7.4 W 17 22 9 12 1016.9 1016.6 0.0
29/12:00pm 19.1 14.8 5.2 40 6.8 W 17 24 9 13 1017.2 1016.9 0.0
29/11:30am 18.8 13.7 4.2 38 7.0 SW 20 30 11 16 1017.8 1017.5 0.0
29/11:00am 19.6 16.0 4.9 38 7.2 WSW 13 20 7 11 1017.9 1017.6 0.0
29/10:30am 18.0 12.8 3.5 38 6.8 SW 20 30 11 16 1018.2 1017.9 0.0
29/10:00am 17.7 12.3 4.3 41 6.4 SW 22 35 12 19 1018.3 1018.0 0.0

Latest Capital City Observations: Canberra | Sydney | Melbourne | Brisbane | Adelaide | Perth | Hobart | Darwin

Other Formats:

Comma delimited format used in spreadsheet applications
http://www.bom.gov.au/fwo/IDQ60901/IDQ60901.94594.axf

JavaScript Object Notation format (JSON) in row-major order
http://www.bom.gov.au/fwo/IDQ60901/IDQ60901.94594.json